• Join FlightAware (Why Join?)
  • Login
  • US Flag 
04:12AM EDT


 

Airport Tracker/Info


-or-


 

Live Flight TrackerFlight Track Log ✈ UAL4086 ✈ 18-Apr-2013 ✈ KHSV - KIAH

Flight Track Log - Related Links

Times and Time Zones

All times are in EDT time to prevent confusion due to time zone crossing. See the UAL4086 flight status page for this flight to view local times or setup timezone preferences in your user account.

Time Position Orientation Groundspeed Altitude Reporting Facility
EDT Latitude Longitude Course Direction KTS MPH feet Rate Location/Type
07:14AM 34.4256 -87.0825 233° Southwest  Level FlightAware Approximate
07:14AM 34.4808 -86.8828 231° Southwest 217 250 7,800  Level Memphis Center
07:15AM 34.3749 -87.1626 231° Southwest  Level FlightAware Approximate
07:15AM 34.4389 -86.9525 234° Southwest 241 277 9,600  Level Memphis Center
07:16AM 34.3226 -87.2411 231° Southwest  Level FlightAware Approximate
07:16AM 34.3931 -87.0247 232° Southwest 264 304 10,900  Level Memphis Center
07:17AM 34.2703 -87.3196 231° Southwest  Level FlightAware Approximate
07:17AM 34.3431 -87.1122 235° Southwest 294 338 11,400  Level Memphis Center
07:18AM 34.2180 -87.3981 231° Southwest  Level FlightAware Approximate
07:18AM 34.2831 -87.2100 233° Southwest 322 371 12,300  Level Memphis Center
07:19AM 34.1658 -87.4765 231° Southwest  Level FlightAware Approximate
07:19AM 34.2247 -87.3050 233° Southwest 341 392 13,500  Level Memphis Center
07:20AM 34.1708 -87.4000 236° Southwest 352 405 14,400 900 Climbing Memphis Center
07:21AM 34.1125 -87.4947 233° Southwest 357 411 15,400 1,080 Climbing Memphis Center
07:22AM 34.0500 -87.5944 233° Southwest 357 411 16,600 1,140 Climbing Memphis Center
07:23AM 33.9936 -87.6892 234° Southwest 362 417 17,700 960 Climbing Memphis Center
07:24AM 33.9414 -87.7808 236° Southwest 356 410 18,600 1,020 Climbing Memphis Center
07:25AM 33.8767 -87.8828 233° Southwest 375 432 19,800 1,500 Climbing Memphis Center
07:26AM 33.8181 -87.9744 232° Southwest 364 419 21,700 1,860 Climbing Memphis Center
07:27AM 33.7614 -88.0683 234° Southwest 358 412 23,600 1,200 Climbing Memphis Center
07:28AM 33.7044 -88.1575 233° Southwest 352 405 24,200 540 Climbing Memphis Center
07:29AM 33.6456 -88.2536 234° Southwest 352 405 24,700 540 Climbing Memphis Center
07:30AM 33.5847 -88.3550 234° Southwest 364 419 25,300 840 Climbing Memphis Center
07:31AM 33.5258 -88.4558 235° Southwest 374 430 26,400 1,140 Climbing Memphis Center
07:32AM 33.4644 -88.5544 233° Southwest 374 430 27,600 1,200 Climbing Memphis Center
07:33AM 33.4075 -88.6525 235° Southwest 374 430 28,800 1,200 Climbing Memphis Center
07:34AM 33.3525 -88.7506 236° Southwest 368 423 30,000 1,200 Climbing Memphis Center
07:35AM 33.2972 -88.8411 234° Southwest 358 412 31,200 1,080 Climbing Memphis Center
07:36AM 33.2442 -88.9339 236° Southwest 353 406 32,200 960 Climbing Memphis Center
07:37AM 33.1886 -89.0242 234° Southwest 348 400 33,200 960 Climbing Memphis Center
07:38AM 33.1353 -89.1169 236° Southwest 343 395 34,200 960 Climbing Memphis Center
07:39AM 33.0842 -89.2069 236° Southwest 337 388 35,200 900 Climbing Memphis Center
07:40AM 33.0306 -89.2942 234° Southwest 337 388 36,000 360 Climbing Memphis Center
07:41AM 32.9769 -89.3864 235° Southwest 337 388 36,000  Level Memphis Center
07:42AM 32.9194 -89.4811 234° Southwest 342 394 36,000  Level Memphis Center
07:43AM 32.8594 -89.5783 234° Southwest 358 412 36,000  Level Memphis Center
07:44AM 32.7953 -89.6825 234° Southwest 371 427 36,000  Level Memphis Center
07:45AM 32.7333 -89.7917 236° Southwest 397 457 36,000  Level Memphis Center
07:46AM 32.6689 -89.9008 235° Southwest 403 464 36,000  Level Memphis Center
07:47AM 32.6047 -90.0072 234° Southwest 403 464 36,000  Level Memphis Center
07:48AM 32.5381 -90.1158 234° Southwest 403 464 36,000  Level Memphis Center
07:49AM 32.4778 -90.2244 237° Southwest 403 464 36,000  Level Memphis Center
07:50AM 32.4214 -90.3328 238° Southwest 403 464 36,000  Level Memphis Center
07:51AM 32.3631 -90.4458 239° Southwest 398 458 36,000  Level Memphis Center
07:53AM 32.2297 -90.7000 238° Southwest 401 461 36,000  Level Houston Center
07:54AM 32.1689 -90.8150 238° Southwest 404 465 36,000  Level Houston Center
07:55AM 32.1106 -90.9269 238° Southwest 406 467 36,000  Level Houston Center
07:56AM 32.0508 -91.0383 238° Southwest 402 463 36,000  Level Houston Center
07:57AM 31.9906 -91.1511 238° Southwest 407 468 36,000  Level Houston Center
07:58AM 31.9317 -91.2619 238° Southwest 401 461 36,000  Level Houston Center
07:59AM 31.8739 -91.3703 238° Southwest 394 453 36,000  Level Houston Center
08:00AM 31.8156 -91.4767 237° Southwest 387 445 36,000  Level Houston Center
08:01AM 31.7467 -91.6053 238° Southwest 387 445 36,000  Level Houston Center
08:02AM 31.6892 -91.7128 238° Southwest 388 447 36,000  Level Houston Center
08:03AM 31.6328 -91.8172 238° Southwest 381 438 36,000  Level Houston Center
08:04AM 31.5764 -91.9217 238° Southwest 379 436 36,000  Level Houston Center
08:05AM 31.5194 -92.0236 237° Southwest 375 432 36,000  Level Houston Center
08:06AM 31.4636 -92.1267 238° Southwest 375 432 36,000  Level Houston Center
08:07AM 31.4072 -92.2275 237° Southwest 372 428 36,000  Level Houston Center
08:08AM 31.3517 -92.3286 237° Southwest 369 425 36,000  Level Houston Center
08:09AM 31.2903 -92.4419 238° Southwest 370 426 36,000  Level Houston Center
08:10AM 31.2378 -92.5433 239° Southwest 366 421 36,000  Level Houston Center
08:11AM 31.1756 -92.6436 234° Southwest 390 449 36,000  Level Houston Center
08:13AM 31.1206 -92.7450 238° Southwest 375 432 36,000  Level Houston Center
08:14AM 31.0622 -92.8481 237° Southwest 379 436 36,000 -360 Level Houston Center
08:15AM 31.0047 -92.9517 237° Southwest 380 437 35,300 -960 Descending Houston Center
08:16AM 30.9344 -93.0736 236° Southwest 378 435 34,100 -1,080 Descending Houston Center
08:17AM 30.8739 -93.1797 236° Southwest 390 449 33,100 -1,260 Descending Houston Center
08:18AM 30.8131 -93.2903 237° Southwest 404 465 31,600 -1,740 Descending Houston Center
08:19AM 30.7522 -93.3942 236° Southwest 393 452 29,600 -1,980 Descending Houston Center
08:20AM 30.6944 -93.4981 237° Southwest 385 443 27,600 -2,040 Descending Houston Center
08:21AM 30.6303 -93.6097 236° Southwest 388 447 25,500 -1,980 Descending Houston Center
08:22AM 30.5711 -93.7142 237° Southwest 386 444 23,600 -2,040 Descending Houston Center
08:23AM 30.5128 -93.8156 236° Southwest 380 437 21,400 -2,160 Descending Houston Center
08:23AM 30.4844 -93.8658 237° Southwest 375 432 20,400 -1,980 Descending Houston Center
08:24AM 30.4547 -93.9169 236° Southwest 377 434 19,400 -2,100 Descending Houston Center
08:24AM 30.4236 -93.9711 236° Southwest 372 428 18,300 -2,100 Descending Houston Center
08:25AM 30.3989 -94.0139 236° Southwest 367 422 17,300 -2,040 Descending Houston Center
08:25AM 30.3719 -94.0628 237° Southwest 359 413 16,200 -1,980 Descending Houston Center
08:26AM 30.3431 -94.1106 235° Southwest 361 415 15,300 -2,040 Descending Houston Center
08:26AM 30.3131 -94.1653 238° Southwest 364 419 14,200 -1,980 Descending Houston Center
08:27AM 30.2861 -94.2094 235° Southwest 365 420 13,300 -1,800 Descending Houston Center
08:27AM 30.2503 -94.2731 237° Southwest 360 414 12,200 -1,200 Descending Houston Center
08:28AM 30.2225 -94.3211 236° Southwest 350 403 12,100 -120 Descending Houston Center
08:28AM 30.2003 -94.3642 239° Southwest 305 351 12,100 -540 Level Houston Center
08:29AM 30.1886 -94.4111 254° West 319 367 11,600 -1,020 Descending Houston Center
08:29AM 30.1803 -94.4586 259° West 322 371 11,100 -1,020 Descending Houston Center
08:30AM 30.1736 -94.5097 261° West 319 367 10,600 -1,140 Descending Houston Center
08:30AM 30.1633 -94.5650 258° West 312 359 10,000 -480 Descending Houston Center
08:31AM 30.1556 -94.6069 258° West 313 360 10,100  Climbing Houston Center
08:31AM 30.1472 -94.6589 260° West 305 351 10,000 -240 Descending Houston Center
08:32AM 30.1406 -94.6997 259° West 298 343 9,900 -660 Descending Houston Center
08:33AM 30.1308 -94.7503 257° West 262 302 9,300 -900 Descending Houston Center
08:33AM 30.1269 -94.7808 262° West 266 306 9,000 -1,140 Descending Houston Center
08:34AM 30.1161 -94.8392 258° West 258 297 8,200 -1,020 Descending Houston Center
08:34AM 30.1117 -94.8611 257° West 259 298 8,000 -1,020 Descending Houston Center
08:34AM 30.1058 -94.9083 262° West 258 297 7,300 -1,200 Descending Houston Center
08:35AM 30.1058 -94.9597 270° West 257 296 6,800 -1,140 Descending Houston Center
08:35AM 30.1058 -94.9953 270° West 250 288 6,200 -600 Descending Houston Center
08:36AM 30.1064 -95.0675 271° West 247 284 6,000 -120 Descending Houston Center
08:37AM 30.1061 -95.1181 270° West 250 288 6,100  Climbing Houston Center
08:37AM 30.1056 -95.1497 269° West 253 291 6,000  Descending Houston Center
08:38AM 30.1064 -95.1986 271° West 251 289 6,100  Climbing Houston Center
08:38AM 30.1069 -95.2319 271° West 253 291 6,000  Descending Houston Center
08:39AM 30.1069 -95.2803 270° West 254 292 6,100  Climbing Houston Center
08:39AM 30.1058 -95.3117 268° West 248 285 6,000 -240 Descending Houston Center
08:40AM 30.1072 -95.3583 272° West 249 287 5,900 -720 Descending Houston Center
08:40AM 30.1069 -95.3936 269° West 246 283 5,300 -1,320 Descending Houston Center
08:41AM 30.1069 -95.4506 270° West 243 280 4,600 -900 Descending Houston Center
08:41AM 30.1056 -95.4711 266° West 245 282 4,400 -1,020 Descending Houston Center
08:42AM 30.1078 -95.5297 273° West 246 283 3,600 -1,020 Descending Houston Center
08:43AM 30.1072 -95.5578 269° West 250 288 3,300 -600 Descending Houston Center
08:43AM 30.1075 -95.6108 270° West 250 288 3,000 -300 Descending Houston Center
08:44AM 30.1064 -95.6425 268° West 249 287 3,000  Level Houston Center
08:44AM 30.1064 -95.6856 270° West 243 280 3,000  Level Houston Center
08:45AM 30.0622 -95.7003 196° South 205 236 3,000  Level Houston Center
08:46AM 30.0169 -95.6772 156° South 192 221 3,000  Level Houston Center
08:48AM 30.0069 -95.5889 97° East 217 250 3,000  Level Houston Center